createdAt,value
2018-09-02T02:08:50.766Z,9.67
2018-09-02T02:09:54.440Z,11.97
2018-09-02T02:10:58.155Z,12.43
2018-09-02T02:12:01.788Z,9.18
2018-09-02T02:13:05.494Z,10.88
2018-09-02T02:14:09.229Z,11.22
2018-09-02T02:15:12.847Z,10.60
2018-09-02T02:16:16.495Z,11.80
2018-09-02T02:17:30.219Z,8.43
2018-09-02T02:18:34.207Z,10.13
2018-09-02T02:19:38.004Z,8.87
2018-09-02T02:44:12.901Z,9.53
2018-09-02T02:45:16.469Z,11.08
2018-09-02T02:46:20.061Z,8.83
2018-09-02T02:47:23.556Z,9.88
2018-09-02T02:48:27.246Z,11.60
2018-09-02T02:49:31.226Z,14.80
2018-09-02T02:50:34.837Z,11.30
2018-09-02T02:51:38.374Z,12.50
2018-09-02T02:52:47.328Z,11.65
2018-09-02T02:53:50.867Z,14.57
2018-09-02T02:54:54.933Z,10.80
2018-09-02T02:55:58.497Z,14.25
2018-09-02T02:57:02.009Z,13.88
2018-09-02T02:58:05.697Z,13.03
2018-09-02T02:59:09.655Z,11.78
2018-09-02T03:00:13.239Z,12.07
2018-09-02T03:01:16.936Z,12.23
2018-09-02T03:02:20.545Z,13.45
2018-09-02T03:03:24.503Z,13.25
2018-09-02T03:04:28.137Z,14.55
2018-09-02T03:05:32.062Z,17.23
2018-09-02T03:06:35.669Z,18.42
2018-09-02T03:07:39.231Z,14.55
2018-09-02T03:08:42.853Z,11.27
2018-09-02T03:09:46.329Z,12.10
2018-09-02T03:10:49.857Z,12.63
2018-09-02T03:11:53.358Z,12.80
2018-09-02T03:12:57.279Z,15.53
2018-09-02T03:14:00.776Z,13.03
2018-09-02T03:15:04.614Z,12.75
2018-09-02T03:16:08.884Z,16.53
2018-09-02T03:17:12.358Z,15.37
2018-09-02T03:18:15.797Z,13.35
2018-09-02T03:19:19.311Z,14.03
2018-09-02T03:20:23.386Z,17.37
2018-09-02T03:21:26.932Z,13.83
2018-09-02T03:22:30.550Z,15.55
2018-09-02T03:23:34.285Z,12.57
2018-09-02T03:24:38.487Z,12.70
2018-09-02T03:25:42.572Z,16.15
2018-09-02T03:26:46.065Z,15.45
2018-09-02T03:27:49.508Z,14.70
2018-09-02T03:28:53.125Z,13.88
2018-09-02T03:29:56.609Z,17.23
2018-09-02T03:31:00.170Z,17.75
2018-09-02T03:32:03.932Z,16.42
2018-09-02T03:33:07.426Z,12.98
2018-09-02T03:34:10.925Z,14.13
2018-09-02T03:35:14.468Z,13.65
2018-09-02T03:36:17.930Z,15.65
2018-09-02T03:37:21.397Z,13.93
2018-09-02T03:38:25.756Z,14.25
2018-09-02T03:39:29.763Z,13.25
2018-09-02T03:40:34.206Z,13.30
2018-09-02T03:41:38.573Z,15.78
2018-09-02T03:42:42.557Z,16.60
2018-09-02T03:43:46.324Z,14.35
2018-09-02T03:44:51.205Z,12.03
2018-09-02T03:45:54.899Z,17.03
2018-09-02T03:46:58.365Z,14.83
2018-09-02T03:48:01.862Z,16.40
2018-09-02T03:49:05.445Z,15.03
2018-09-02T03:50:09.133Z,15.32
2018-09-02T03:51:12.742Z,13.75
2018-09-02T03:52:16.538Z,14.63
2018-09-02T03:53:20.058Z,17.30
2018-09-02T03:54:24.104Z,14.90
2018-09-02T03:55:27.816Z,14.65
2018-09-02T03:56:31.614Z,14.53
2018-09-02T03:57:35.212Z,14.78
2018-09-02T03:58:39.505Z,14.07
2018-09-02T03:59:42.991Z,16.20
2018-09-02T04:00:46.454Z,12.10
2018-09-02T04:01:49.967Z,13.18
2018-09-02T04:02:53.571Z,14.73
2018-09-02T04:03:57.019Z,13.22
2018-09-02T04:05:00.624Z,14.33
2018-09-02T04:06:04.237Z,12.35
2018-09-02T04:07:07.694Z,14.78
2018-09-02T04:08:11.667Z,14.85
2018-09-02T04:09:15.358Z,14.53
2018-09-02T04:10:18.929Z,15.23
2018-09-02T04:11:22.468Z,14.90
2018-09-02T04:12:26.090Z,14.20
2018-09-02T04:13:29.600Z,15.15
2018-09-02T04:14:33.045Z,12.98
2018-09-02T04:15:36.653Z,14.87
2018-09-02T04:16:40.407Z,15.15
2018-09-02T04:17:43.913Z,16.37
2018-09-02T04:18:47.383Z,14.50
2018-09-02T04:19:51.428Z,13.78
2018-09-02T04:20:55.858Z,14.00
2018-09-02T04:21:59.363Z,14.60
2018-09-02T04:23:03.817Z,13.90
2018-09-02T04:24:07.372Z,14.40
2018-09-02T04:25:10.828Z,12.80
2018-09-02T04:26:14.397Z,15.23
2018-09-02T04:27:17.934Z,11.25
2018-09-02T04:28:21.410Z,11.75
2018-09-02T04:29:25.738Z,14.63
2018-09-02T04:30:32.961Z,15.00
2018-09-02T04:31:37.089Z,13.40
2018-09-02T04:32:40.826Z,14.28
2018-09-02T04:33:44.351Z,13.48
2018-09-02T04:34:47.817Z,13.70
2018-09-02T04:35:51.329Z,13.88
2018-09-02T04:36:55.429Z,12.10
2018-09-02T04:37:59.038Z,14.15
2018-09-02T04:39:03.904Z,15.25
2018-09-02T04:40:07.551Z,12.37
2018-09-02T04:41:12.903Z,17.25
2018-09-02T04:42:17.086Z,15.28
2018-09-02T04:43:20.624Z,14.45
2018-09-02T04:44:24.186Z,14.55
2018-09-02T04:45:27.977Z,14.23
2018-09-02T04:46:32.269Z,14.03
2018-09-02T04:47:37.348Z,13.85
2018-09-02T04:48:41.109Z,14.78
2018-09-02T04:49:44.642Z,15.20
2018-09-02T04:50:48.166Z,16.05
2018-09-02T04:51:51.683Z,15.05
2018-09-02T04:52:55.922Z,13.93
2018-09-02T04:53:59.634Z,14.28
2018-09-02T04:55:03.790Z,16.37
2018-09-02T04:56:07.285Z,14.75
2018-09-02T04:57:12.525Z,16.77
2018-09-02T04:58:17.091Z,17.23
2018-09-02T04:59:20.600Z,17.12
2018-09-02T05:00:24.344Z,17.90
2018-09-02T05:01:27.850Z,13.50
2018-09-02T05:02:32.236Z,17.12
2018-09-02T05:03:35.712Z,15.83
2018-09-02T05:04:39.590Z,13.00
2018-09-02T05:05:43.099Z,11.70
2018-09-02T05:06:46.597Z,16.35
2018-09-02T05:07:50.253Z,16.00
2018-09-02T05:08:53.915Z,15.68
2018-09-02T05:09:57.765Z,13.78
2018-09-02T05:11:01.813Z,13.00
2018-09-02T05:12:06.093Z,16.67
2018-09-02T05:13:09.774Z,12.75
2018-09-02T05:14:14.699Z,12.03
2018-09-02T05:15:18.493Z,13.38
2018-09-02T05:16:22.429Z,12.20
2018-09-02T05:17:28.182Z,11.48
2018-09-02T05:18:32.474Z,11.43
2018-09-02T05:19:39.328Z,10.65
2018-09-02T05:20:43.023Z,11.28
2018-09-02T05:21:52.539Z,10.35
2018-09-02T05:25:27.213Z,9.05
2018-09-02T05:28:25.337Z,8.13
2018-09-02T05:29:28.910Z,8.50
2018-09-02T05:30:32.743Z,7.58
2018-09-02T05:31:36.261Z,8.45
2018-09-02T05:32:41.680Z,8.25
2018-09-02T05:33:45.410Z,7.55
2018-09-02T05:34:49.635Z,9.60
2018-09-02T05:35:53.539Z,9.85
2018-09-02T05:36:57.244Z,9.25
2018-09-02T05:38:00.807Z,7.20
2018-09-02T05:39:06.791Z,9.28
2018-09-02T05:40:11.832Z,8.38
2018-09-02T05:41:15.868Z,8.73
2018-09-02T05:42:22.078Z,7.80
2018-09-02T05:43:25.677Z,6.83
2018-09-02T05:44:29.214Z,7.62
2018-09-02T05:45:33.298Z,8.15
2018-09-02T05:46:37.303Z,8.48
2018-09-02T05:47:41.739Z,6.92
2018-09-02T05:48:45.351Z,7.58
2018-09-02T05:49:49.483Z,8.20
2018-09-02T05:50:53.087Z,7.50
2018-09-02T05:51:56.815Z,7.33
2018-09-02T05:53:02.352Z,7.92
2018-09-02T05:54:06.252Z,5.95
2018-09-02T05:55:10.317Z,8.43
2018-09-02T05:56:20.431Z,9.38
2018-09-02T05:57:24.614Z,9.18
2018-09-02T05:58:28.281Z,7.50
2018-09-02T05:59:31.803Z,6.87
2018-09-02T06:00:36.055Z,7.42
2018-09-02T06:01:39.805Z,7.05
2018-09-02T06:02:43.811Z,8.80
2018-09-02T06:03:47.334Z,5.65
2018-09-02T06:04:50.905Z,7.85
2018-09-02T06:05:54.991Z,6.92
2018-09-02T06:06:59.026Z,6.65
2018-09-02T06:08:02.726Z,8.23
2018-09-02T06:09:08.022Z,7.15
2018-09-02T06:10:15.075Z,8.98
2018-09-02T06:11:22.707Z,6.83
2018-09-02T06:12:26.283Z,6.35
2018-09-02T06:13:29.791Z,6.55
2018-09-02T06:14:33.725Z,6.95
2018-09-02T06:15:37.278Z,7.28
2018-09-02T06:16:40.989Z,7.65
2018-09-02T06:17:44.907Z,5.67
2018-09-02T06:18:48.593Z,7.30
2018-09-02T06:19:52.148Z,6.67
2018-09-02T06:20:55.756Z,5.70
2018-09-02T06:21:59.398Z,7.08
2018-09-02T06:23:03.016Z,8.00
2018-09-02T06:24:06.945Z,6.22
2018-09-02T06:25:14.031Z,7.83
2018-09-02T06:26:21.207Z,6.83
2018-09-02T06:27:25.043Z,5.83
2018-09-02T06:28:28.773Z,6.70
2018-09-02T06:29:32.508Z,5.67
2018-09-02T06:30:36.431Z,8.13
2018-09-02T06:31:40.592Z,7.03
2018-09-02T06:32:44.427Z,6.53
2018-09-02T06:33:48.078Z,4.87
2018-09-02T06:34:51.883Z,7.47
2018-09-02T06:35:55.520Z,7.00
2018-09-02T06:36:59.052Z,7.22
2018-09-02T06:38:03.178Z,5.28
2018-09-02T06:39:10.207Z,5.33
2018-09-02T06:40:14.237Z,6.97
2018-09-02T06:41:17.941Z,7.37
2018-09-02T06:42:22.522Z,7.37
2018-09-02T06:43:26.210Z,6.47
2018-09-02T06:44:29.839Z,5.20
2018-09-02T06:45:33.517Z,5.05
2018-09-02T06:46:37.090Z,7.35
2018-09-02T06:47:40.720Z,7.62
2018-09-02T06:48:44.706Z,6.40
2018-09-02T06:49:48.516Z,6.70
2018-09-02T06:50:52.354Z,8.15
2018-09-02T06:51:55.993Z,5.15
2018-09-02T06:52:59.980Z,5.40
2018-09-02T06:54:03.678Z,5.03
2018-09-02T06:55:07.263Z,6.17
2018-09-02T06:56:12.254Z,5.92
2018-09-02T06:57:15.845Z,5.92
2018-09-02T06:58:19.554Z,5.42
2018-09-02T06:59:25.731Z,6.20
2018-09-02T07:00:31.361Z,5.10
2018-09-02T07:01:35.694Z,5.20
2018-09-02T07:02:39.504Z,6.50
2018-09-02T07:03:43.440Z,5.95
2018-09-02T07:04:47.719Z,5.22
2018-09-02T07:05:51.719Z,6.20
2018-09-02T07:06:55.406Z,5.78
2018-09-02T07:07:59.244Z,4.40
2018-09-02T07:09:03.138Z,7.03
2018-09-02T07:10:07.343Z,5.65
2018-09-02T07:11:11.232Z,6.03
2018-09-02T07:12:14.793Z,5.22
2018-09-02T07:13:18.534Z,4.58
2018-09-02T07:14:22.166Z,5.28
2018-09-02T07:15:25.894Z,3.98
2018-09-02T07:16:29.575Z,6.45
2018-09-02T07:17:33.281Z,5.33
2018-09-02T07:18:36.936Z,6.05
2018-09-02T07:19:42.473Z,5.78
2018-09-02T07:20:46.103Z,5.53
2018-09-02T07:21:49.747Z,4.90
2018-09-02T07:22:53.438Z,4.60
2018-09-02T07:23:57.115Z,6.20
2018-09-02T07:25:01.135Z,5.05
2018-09-02T07:26:04.841Z,7.15
2018-09-02T07:27:08.515Z,4.87
2018-09-02T07:28:12.630Z,4.72
2018-09-02T07:29:16.196Z,5.47
2018-09-02T07:30:19.812Z,9.03
2018-09-02T07:31:23.403Z,6.62
2018-09-02T07:32:26.950Z,5.87
2018-09-02T07:33:30.555Z,6.03
2018-09-02T07:34:34.745Z,4.62
2018-09-02T07:35:38.368Z,6.50
2018-09-02T07:36:42.142Z,6.55
2018-09-02T07:37:45.767Z,4.10
2018-09-02T07:38:49.390Z,3.70
2018-09-02T07:39:53.036Z,4.87
2018-09-02T07:40:56.649Z,4.65
2018-09-02T07:42:00.236Z,4.30
2018-09-02T07:43:04.171Z,6.08
2018-09-02T07:44:07.812Z,4.80
2018-09-02T07:45:12.473Z,5.22
2018-09-02T07:46:16.159Z,5.22
2018-09-02T07:47:20.767Z,6.20
2018-09-02T07:48:24.383Z,3.87
2018-09-02T07:49:27.965Z,5.87
2018-09-02T07:50:31.603Z,4.53
2018-09-02T07:51:35.211Z,5.35
2018-09-02T07:52:38.833Z,4.75
2018-09-02T07:53:43.126Z,4.53
2018-09-02T07:54:46.849Z,4.22
2018-09-02T07:55:50.514Z,5.05
2018-09-02T07:56:54.203Z,5.10
2018-09-02T07:57:57.792Z,4.62
2018-09-02T07:59:01.368Z,3.98
2018-09-02T08:00:06.630Z,5.50
2018-09-02T08:01:10.372Z,4.78
2018-09-02T08:02:14.170Z,7.05
2018-09-02T08:03:17.784Z,4.17
2018-09-02T08:04:21.404Z,3.75
2018-09-02T08:05:25.074Z,4.53
2018-09-02T08:06:28.692Z,4.17
2018-09-02T08:07:32.308Z,3.47
2018-09-02T08:08:36.098Z,5.15
2018-09-02T08:09:39.716Z,6.20
2018-09-02T08:10:43.298Z,5.53
2018-09-02T08:11:46.878Z,3.42
2018-09-02T08:12:50.796Z,5.85
2018-09-02T08:13:54.281Z,4.10
2018-09-02T08:14:57.992Z,4.72
2018-09-02T08:16:02.238Z,4.70
2018-09-02T08:17:06.000Z,4.92
2018-09-02T08:18:09.675Z,5.00
2018-09-02T08:19:13.384Z,4.30
2018-09-02T08:20:17.062Z,8.63
2018-09-02T08:21:20.706Z,4.30
2018-09-02T08:22:24.405Z,6.58
2018-09-02T08:23:28.085Z,5.72
2018-09-02T08:24:31.722Z,4.95
2018-09-02T08:25:35.292Z,5.87
2018-09-02T08:26:38.992Z,6.20
2018-09-02T08:27:42.613Z,4.70
2018-09-02T08:28:46.438Z,5.05
2018-09-02T08:29:50.023Z,4.90
2018-09-02T08:30:53.667Z,5.08
2018-09-02T08:31:57.523Z,6.97
2018-09-02T08:33:01.187Z,3.58
2018-09-02T08:34:04.832Z,4.28
2018-09-02T08:35:08.471Z,5.12
2018-09-02T08:36:12.478Z,3.35
2018-09-02T08:37:16.147Z,5.00
2018-09-02T08:38:19.764Z,7.03
2018-09-02T08:39:23.394Z,4.45
2018-09-02T08:40:27.051Z,5.35
2018-09-02T08:41:30.665Z,4.33
2018-09-02T08:42:34.455Z,4.45
2018-09-02T08:43:38.195Z,4.33
2018-09-02T08:44:41.922Z,5.47
2018-09-02T08:45:45.597Z,5.55
2018-09-02T08:46:49.167Z,4.10
2018-09-02T08:47:52.742Z,4.20
2018-09-02T08:48:56.369Z,5.35
2018-09-02T08:50:00.031Z,3.87
2018-09-02T08:51:03.844Z,5.20
2018-09-02T08:52:08.110Z,3.27
2018-09-02T08:53:12.037Z,3.12
2018-09-02T08:54:15.666Z,4.08
2018-09-02T08:55:19.336Z,3.55
2018-09-02T08:56:22.978Z,4.80
2018-09-02T08:57:26.606Z,3.83
2018-09-02T08:58:30.250Z,5.75
2018-09-02T08:59:33.914Z,3.45
2018-09-02T09:00:37.699Z,3.85
2018-09-02T09:01:41.317Z,5.47
2018-09-02T09:02:45.264Z,3.58
2018-09-02T09:03:48.962Z,2.72
2018-09-02T09:04:52.629Z,5.22
2018-09-02T09:05:56.236Z,3.77
2018-09-02T09:06:59.848Z,2.08
2018-09-02T09:08:03.458Z,2.25
2018-09-02T09:09:07.752Z,2.65
2018-09-02T09:10:11.406Z,2.42
2018-09-02T09:11:15.133Z,3.30
2018-09-02T09:12:18.718Z,2.90
2018-09-02T09:13:22.421Z,2.67
2018-09-02T09:14:26.452Z,3.55
2018-09-02T09:15:30.173Z,2.45
2018-09-02T09:16:34.066Z,2.65
2018-09-02T09:17:37.756Z,2.27
2018-09-02T09:18:41.340Z,2.90
2018-09-02T09:19:44.987Z,2.92
2018-09-02T09:20:48.785Z,2.22
2018-09-02T09:21:52.553Z,2.08
2018-09-02T09:22:56.231Z,2.27
2018-09-02T09:23:59.873Z,4.35
2018-09-02T09:25:03.753Z,5.30
2018-09-02T09:26:07.508Z,2.30
2018-09-02T09:27:11.621Z,2.65
2018-09-02T09:28:15.274Z,4.60
2018-09-02T09:29:18.817Z,2.72
2018-09-02T09:30:22.458Z,3.47
2018-09-02T09:31:26.086Z,4.10
2018-09-02T09:32:29.686Z,1.98
2018-09-02T09:33:33.349Z,3.02
2018-09-02T09:34:37.255Z,2.35
2018-09-02T09:35:40.942Z,4.78
2018-09-02T09:36:44.498Z,2.12
2018-09-02T09:37:48.081Z,2.62
2018-09-02T09:38:51.749Z,2.22
2018-09-02T09:39:55.518Z,3.98
2018-09-02T09:40:59.134Z,2.37
2018-09-02T09:42:02.836Z,2.90
2018-09-02T09:43:06.586Z,2.35
2018-09-02T09:44:10.272Z,3.22
2018-09-02T09:45:14.204Z,2.65
2018-09-02T09:46:18.099Z,3.60
2018-09-02T09:47:21.717Z,4.53
2018-09-02T09:48:25.356Z,2.92
2018-09-02T09:49:28.948Z,2.30
2018-09-02T09:50:32.706Z,4.10
2018-09-02T09:51:36.318Z,5.03
2018-09-02T09:52:39.900Z,2.95
2018-09-02T09:53:43.744Z,2.15
2018-09-02T09:54:47.669Z,3.77
2018-09-02T09:55:51.298Z,2.85
2018-09-02T09:56:55.202Z,3.65
2018-09-02T09:57:58.999Z,2.98
2018-09-02T09:59:02.608Z,3.30
2018-09-02T10:00:06.216Z,3.25
2018-09-02T10:01:09.959Z,4.30
2018-09-02T10:02:14.311Z,2.95
2018-09-02T10:03:18.476Z,4.65
2018-09-02T10:04:22.051Z,3.02
2018-09-02T10:05:25.740Z,3.05
2018-09-02T10:06:29.282Z,3.75
2018-09-02T10:07:32.972Z,3.55
2018-09-02T10:08:36.749Z,3.83
2018-09-02T10:09:40.355Z,2.80
2018-09-02T10:10:44.047Z,2.90
2018-09-02T10:11:47.702Z,4.50
2018-09-02T10:12:51.258Z,2.12
2018-09-02T10:13:55.424Z,3.22
2018-09-02T10:14:59.100Z,2.90
2018-09-02T10:16:02.762Z,4.72
2018-09-02T10:17:06.402Z,4.40
2018-09-02T10:18:10.351Z,3.02
2018-09-02T10:19:13.952Z,3.55
2018-09-02T10:20:18.182Z,2.00
2018-09-02T10:21:21.807Z,2.42
2018-09-02T10:22:25.395Z,3.50
2018-09-02T10:23:29.045Z,2.72
2018-09-02T10:24:32.667Z,3.12
2018-09-02T10:25:36.366Z,2.77
2018-09-02T10:26:39.997Z,3.00
2018-09-02T10:27:43.701Z,3.80
2018-09-02T10:28:47.469Z,3.72
2018-09-02T10:29:51.518Z,2.75
2018-09-02T10:31:07.857Z,3.30
2018-09-02T10:32:11.662Z,3.80
2018-09-02T10:33:15.474Z,3.83
2018-09-02T10:34:19.118Z,2.17
2018-09-02T10:35:22.679Z,2.50
2018-09-02T10:36:26.532Z,2.75
2018-09-02T10:37:30.429Z,4.00
2018-09-02T10:38:35.157Z,2.98
2018-09-02T10:39:39.016Z,4.42
2018-09-02T10:40:42.630Z,4.95
2018-09-02T10:41:46.350Z,5.05
2018-09-02T10:42:50.553Z,3.00
2018-09-02T10:43:54.348Z,3.05
2018-09-02T10:44:58.097Z,4.37
2018-09-02T10:46:02.527Z,3.15
2018-09-02T10:47:06.159Z,3.37
2018-09-02T10:48:10.742Z,3.15
2018-09-02T10:49:14.485Z,3.62
2018-09-02T10:50:18.037Z,3.15
2018-09-02T10:51:21.643Z,1.90
2018-09-02T10:52:25.365Z,2.80
2018-09-02T10:53:29.521Z,4.87
2018-09-02T10:54:33.299Z,4.60
2018-09-02T10:55:36.909Z,2.50
2018-09-02T10:56:41.402Z,3.37
2018-09-02T10:57:45.098Z,3.00
2018-09-02T10:58:48.780Z,2.27
2018-09-02T10:59:52.737Z,2.80
2018-09-02T11:00:56.766Z,2.47
2018-09-02T11:02:00.362Z,5.58
2018-09-02T11:03:03.983Z,3.52
2018-09-02T11:04:07.730Z,3.80
2018-09-02T11:05:11.618Z,3.77
2018-09-02T11:06:49.176Z,2.58
2018-09-02T11:08:07.270Z,4.62
2018-09-02T11:09:12.348Z,2.75
2018-09-02T11:10:15.964Z,4.10
2018-09-02T11:11:20.049Z,3.80
2018-09-02T11:12:23.665Z,4.83
2018-09-02T11:13:27.359Z,2.37
2018-09-02T11:14:32.052Z,4.83
2018-09-02T11:15:35.832Z,2.80
2018-09-02T11:16:40.144Z,2.30
2018-09-02T11:17:43.764Z,3.55
2018-09-02T11:18:47.242Z,3.02
2018-09-02T11:19:51.138Z,2.90
2018-09-02T11:20:54.787Z,3.95
2018-09-02T11:21:58.315Z,3.50
2018-09-02T11:23:01.940Z,4.22
2018-09-02T11:24:06.479Z,3.27
2018-09-02T11:25:11.516Z,2.62
2018-09-02T11:26:15.156Z,3.00
2018-09-02T11:27:18.966Z,2.55
2018-09-02T11:28:23.217Z,2.70
2018-09-02T11:29:26.981Z,3.27
2018-09-02T11:30:31.221Z,3.27
2018-09-02T11:31:34.895Z,2.20
2018-09-02T11:32:39.557Z,2.37
2018-09-02T11:33:43.231Z,2.35
2018-09-02T11:34:47.328Z,3.45
2018-09-02T11:35:50.977Z,3.77
2018-09-02T11:36:55.790Z,3.58
2018-09-02T11:37:59.540Z,2.98
2018-09-02T11:39:04.815Z,2.90
2018-09-02T11:40:08.632Z,3.83
2018-09-02T11:41:12.718Z,1.95
2018-09-02T11:42:16.284Z,2.58
2018-09-02T11:43:20.777Z,3.17
2018-09-02T11:44:25.256Z,3.08
2018-09-02T11:45:29.193Z,3.25
2018-09-02T11:46:33.323Z,2.85
2018-09-02T11:47:37.227Z,2.85
2018-09-02T11:48:41.875Z,2.83
2018-09-02T11:49:45.636Z,3.10
2018-09-02T11:50:49.525Z,2.72
2018-09-02T11:51:53.239Z,4.70
2018-09-02T11:52:57.858Z,2.65
2018-09-02T11:54:01.431Z,2.10
2018-09-02T11:55:05.631Z,4.47
2018-09-02T11:56:09.972Z,2.80
2018-09-02T11:57:13.656Z,3.52
2018-09-02T11:58:17.751Z,2.22
2018-09-02T11:59:21.398Z,2.98
2018-09-02T12:00:25.607Z,2.52
2018-09-02T12:01:29.185Z,2.58
2018-09-02T12:02:32.839Z,2.70
2018-09-02T12:03:37.079Z,3.10
2018-09-02T12:04:40.799Z,3.45
2018-09-02T12:05:44.609Z,3.45
2018-09-02T12:06:48.266Z,3.75
2018-09-02T12:07:52.354Z,3.98
2018-09-02T12:08:56.370Z,3.12
2018-09-02T12:10:00.132Z,2.47
2018-09-02T12:11:04.331Z,2.42
2018-09-02T12:12:08.030Z,3.42
2018-09-02T12:13:12.009Z,2.45
2018-09-02T12:14:15.933Z,3.45
2018-09-02T12:15:20.244Z,2.08
2018-09-02T12:16:23.816Z,2.15
2018-09-02T12:17:27.419Z,2.15
2018-09-02T12:18:31.135Z,3.67
2018-09-02T12:19:35.165Z,4.78
2018-09-02T12:20:39.952Z,3.58
2018-09-02T12:21:43.787Z,3.27
2018-09-02T12:22:47.303Z,1.90
2018-09-02T12:23:51.051Z,3.77
2018-09-02T12:24:55.079Z,2.40
2018-09-02T12:25:59.316Z,3.98
2018-09-02T12:27:03.383Z,3.87
2018-09-02T12:28:07.173Z,3.52
2018-09-02T12:29:12.331Z,3.67
2018-09-02T12:30:15.869Z,2.27
2018-09-02T12:31:20.228Z,3.67
2018-09-02T12:32:23.886Z,2.98
2018-09-02T12:33:27.852Z,2.75
2018-09-02T12:34:32.396Z,3.05
2018-09-02T12:35:36.057Z,3.20
2018-09-02T12:36:40.478Z,2.58
2018-09-02T12:37:44.061Z,1.98
2018-09-02T12:38:47.639Z,2.65
2018-09-02T12:39:51.146Z,3.42
2018-09-02T12:40:55.200Z,3.15
2018-09-02T12:41:58.823Z,3.22
2018-09-02T12:43:02.484Z,2.47
2018-09-02T12:44:06.629Z,2.42
2018-09-02T12:45:10.229Z,3.27
2018-09-02T12:46:13.839Z,2.27
2018-09-02T12:47:18.180Z,2.58
2018-09-02T12:48:21.842Z,4.33
2018-09-02T12:49:25.386Z,3.62
2018-09-02T12:50:29.008Z,2.75
2018-09-02T12:51:32.724Z,2.85
2018-09-02T12:52:36.252Z,3.45
2018-09-02T12:53:40.420Z,3.75
2018-09-02T12:54:44.515Z,4.83
2018-09-02T12:55:48.256Z,2.10
2018-09-02T12:56:52.502Z,3.95
2018-09-02T12:57:56.066Z,3.50
2018-09-02T12:58:59.613Z,2.70
2018-09-02T13:00:03.381Z,2.58
2018-09-02T13:01:07.017Z,5.50
2018-09-02T13:02:10.735Z,4.37
2018-09-02T13:03:14.945Z,4.80
2018-09-02T13:04:18.487Z,6.62
2018-09-02T13:05:22.287Z,2.85
2018-09-02T13:06:25.918Z,3.72
2018-09-02T13:07:30.483Z,3.15
2018-09-02T13:08:34.195Z,2.42
2018-09-02T13:09:37.738Z,2.98
2018-09-02T13:10:41.395Z,2.42
2018-09-02T13:11:44.979Z,2.10
2018-09-02T13:12:49.211Z,2.67
2018-09-02T13:13:52.871Z,2.98
2018-09-02T13:16:52.445Z,4.53
2018-09-02T13:18:13.234Z,2.22
2018-09-02T13:19:34.130Z,2.45
2018-09-02T13:20:38.555Z,2.60
2018-09-02T13:21:42.386Z,2.30
2018-09-02T13:22:48.111Z,2.25
2018-09-02T13:23:51.670Z,2.22
2018-09-02T13:24:55.651Z,1.70
2018-09-02T13:26:00.187Z,4.97
2018-09-02T13:27:03.848Z,3.72
2018-09-02T13:28:08.569Z,3.70
2018-09-02T13:29:12.347Z,3.90
2018-09-02T13:30:16.467Z,2.60
2018-09-02T13:31:20.932Z,3.40
2018-09-02T13:32:24.649Z,2.17
2018-09-02T13:33:29.476Z,1.95
2018-09-02T13:34:33.724Z,3.62
2018-09-02T13:35:37.263Z,3.70
2018-09-02T13:36:42.088Z,2.60
2018-09-02T13:37:46.307Z,4.17
2018-09-02T13:38:49.780Z,2.30
2018-09-02T13:39:53.348Z,2.45
2018-09-02T13:40:57.634Z,3.83
2018-09-02T13:42:02.267Z,3.08
2018-09-02T13:43:06.715Z,2.85
2018-09-02T13:44:11.696Z,2.58
2018-09-02T13:45:16.256Z,1.87
2018-09-02T13:46:21.211Z,1.75
2018-09-02T13:47:27.576Z,2.80
2018-09-02T13:48:34.313Z,2.95
2018-09-02T13:49:37.976Z,3.65
2018-09-02T13:50:41.988Z,2.40
2018-09-02T13:51:46.141Z,1.90
2018-09-02T13:52:49.665Z,3.08
2018-09-02T13:53:53.185Z,2.08
2018-09-02T13:54:56.816Z,4.12
2018-09-02T13:56:00.373Z,2.95
2018-09-02T13:57:04.645Z,3.25
2018-09-02T13:58:08.839Z,3.25
2018-09-02T13:59:12.721Z,3.95
2018-09-02T14:00:16.254Z,1.85
2018-09-02T14:01:20.611Z,2.17
2018-09-02T14:02:24.671Z,3.08
2018-09-02T14:03:29.702Z,3.70
2018-09-02T14:04:33.981Z,2.58
2018-09-02T14:05:38.899Z,2.12
2018-09-02T14:06:42.602Z,2.42
2018-09-02T14:07:47.069Z,3.52
2018-09-02T14:08:50.805Z,2.58
2018-09-02T14:09:55.751Z,2.35
2018-09-02T14:10:59.303Z,3.12
2018-09-02T14:12:03.001Z,2.72
2018-09-02T14:13:07.984Z,1.95
2018-09-02T14:14:12.170Z,2.15
2018-09-02T14:15:17.296Z,2.80
2018-09-02T14:16:21.620Z,2.08
2018-09-02T14:17:25.172Z,1.95
2018-09-02T14:18:29.712Z,4.40
2018-09-02T14:19:33.276Z,2.60
2018-09-02T14:20:36.989Z,3.20
2018-09-02T14:21:40.703Z,2.30
2018-09-02T14:22:44.450Z,2.70
2018-09-02T14:23:48.724Z,3.22
2018-09-02T14:24:52.995Z,4.58
2018-09-02T14:25:56.622Z,1.87
2018-09-02T14:27:01.222Z,4.22
2018-09-02T14:28:05.260Z,3.80
2018-09-02T14:29:08.757Z,2.90
2018-09-02T14:30:12.965Z,2.85
2018-09-02T14:31:17.202Z,2.95
2018-09-02T14:32:21.286Z,3.40
2018-09-02T14:33:26.472Z,3.22
2018-09-02T14:34:32.013Z,2.27
2018-09-02T14:35:35.547Z,2.02
2018-09-02T14:36:40.247Z,2.42
2018-09-02T14:37:43.776Z,2.40
2018-09-02T14:38:48.134Z,2.65
2018-09-02T14:39:51.675Z,3.75
2018-09-02T14:40:55.487Z,3.25
2018-09-02T14:41:59.378Z,2.33
2018-09-02T14:43:03.786Z,2.30
2018-09-02T14:44:07.408Z,2.17
2018-09-02T14:45:11.045Z,1.90
2018-09-02T14:46:14.673Z,4.65
2018-09-02T14:47:19.752Z,2.85
2018-09-02T14:48:23.892Z,2.27
2018-09-02T14:49:27.462Z,3.17
2018-09-02T14:50:32.186Z,4.20
2018-09-02T14:51:35.755Z,4.00
2018-09-02T14:52:39.497Z,2.17
2018-09-02T14:53:43.299Z,2.55
2018-09-02T14:54:47.278Z,2.70
2018-09-02T14:55:50.912Z,1.77
2018-09-02T14:56:54.941Z,3.05
2018-09-02T14:57:59.471Z,3.22
2018-09-02T14:59:04.136Z,3.98
2018-09-02T15:00:10.673Z,2.62
2018-09-02T15:01:14.696Z,4.20
2018-09-02T15:02:22.074Z,2.05
2018-09-02T15:03:26.465Z,3.83
2018-09-02T15:04:30.463Z,1.92
2018-09-02T15:05:34.478Z,2.50
2018-09-02T15:06:39.600Z,2.62
2018-09-02T15:07:43.738Z,2.08
2018-09-02T15:08:48.073Z,2.05
2018-09-02T15:09:51.548Z,3.65
2018-09-02T15:10:55.996Z,2.08
2018-09-02T15:12:00.196Z,1.85
2018-09-02T15:13:04.593Z,2.60
2018-09-02T15:14:08.686Z,2.67
2018-09-02T15:15:14.440Z,2.90
2018-09-02T15:16:19.746Z,3.52
2018-09-02T15:17:24.223Z,2.30
2018-09-02T15:18:28.513Z,2.08
2018-09-02T15:19:32.853Z,2.50
2018-09-02T15:20:39.355Z,3.05
2018-09-02T15:21:44.030Z,2.40
2018-09-02T15:22:48.633Z,2.00
2018-09-02T15:23:53.612Z,2.20
2018-09-02T15:24:57.891Z,2.67
2018-09-02T15:26:02.614Z,2.50
2018-09-02T15:27:06.903Z,2.50
2018-09-02T15:28:10.741Z,2.62
2018-09-02T15:29:15.245Z,2.80
2018-09-02T15:30:19.091Z,2.80
2018-09-02T15:31:23.180Z,2.92
2018-09-02T15:32:27.403Z,3.52
2018-09-02T15:33:31.256Z,3.20
2018-09-02T15:34:35.589Z,2.20
2018-09-02T15:35:40.871Z,2.90
2018-09-02T15:36:45.336Z,5.45
2018-09-02T15:37:49.346Z,2.58
2018-09-02T15:38:52.950Z,4.08
2018-09-02T15:39:56.965Z,1.65
2018-09-02T15:41:03.646Z,3.05
2018-09-02T15:42:08.409Z,2.45
2018-09-02T15:43:13.733Z,2.33
2018-09-02T15:44:17.949Z,2.00
2018-09-02T15:45:22.940Z,2.02
2018-09-02T15:46:27.603Z,2.50
2018-09-02T15:47:31.183Z,2.25
2018-09-02T15:48:35.795Z,2.92
2018-09-02T15:49:41.103Z,1.72
2018-09-02T15:50:45.291Z,2.42
2018-09-02T15:51:48.946Z,2.58
2018-09-02T15:52:54.201Z,2.92
2018-09-02T15:53:57.781Z,2.08
2018-09-02T15:55:02.962Z,2.50
2018-09-02T15:56:06.901Z,1.85
2018-09-02T15:57:11.812Z,2.35
2018-09-02T15:58:16.085Z,2.45
2018-09-02T15:59:20.215Z,2.65
2018-09-02T16:00:24.169Z,1.75
2018-09-02T16:01:29.353Z,2.45
2018-09-02T16:02:33.045Z,2.98
2018-09-02T16:03:36.672Z,2.75
2018-09-02T16:04:40.966Z,2.55
2018-09-02T16:05:45.326Z,2.67
2018-09-02T16:06:49.217Z,2.83
2018-09-02T16:07:55.665Z,2.77
2018-09-02T16:09:00.244Z,3.40
2018-09-02T16:10:04.315Z,2.08
2018-09-02T16:11:08.997Z,3.30
2018-09-02T16:12:13.996Z,2.75
2018-09-02T16:13:18.617Z,2.80
2018-09-02T16:14:22.630Z,2.37
2018-09-02T16:15:27.474Z,2.00
2018-09-02T16:16:32.258Z,4.53
2018-09-02T16:17:36.349Z,2.55
2018-09-02T16:18:41.197Z,4.03
2018-09-02T16:19:44.948Z,2.47
2018-09-02T16:20:48.729Z,2.72
2018-09-02T16:21:52.445Z,3.92
2018-09-02T16:23:00.474Z,4.67
2018-09-02T16:24:04.898Z,6.33
2018-09-02T16:25:08.455Z,3.58
2018-09-02T16:26:13.382Z,6.42
2018-09-02T16:27:16.994Z,5.00
2018-09-02T16:28:20.998Z,2.25
2018-09-02T16:29:25.076Z,2.70
2018-09-02T16:30:29.995Z,3.05
2018-09-02T16:31:39.546Z,2.22
2018-09-02T16:32:44.850Z,1.70
2018-09-02T16:33:49.370Z,3.67
2018-09-02T16:34:55.203Z,2.10
2018-09-02T16:36:01.057Z,2.15
2018-09-02T16:37:06.322Z,2.40
2018-09-02T16:38:11.261Z,2.52
2018-09-02T16:39:15.496Z,1.90
2018-09-02T16:40:20.594Z,2.35
2018-09-02T16:41:25.523Z,2.02
2018-09-02T16:42:31.554Z,2.55
2018-09-02T16:43:36.009Z,2.17
2018-09-02T16:44:39.815Z,2.75
2018-09-02T16:45:44.387Z,2.08
2018-09-02T16:46:48.206Z,3.92